Time;durP1;ratioP1;P1;durP2;ratioP2;P2;SDS_P1;SDS_P2;PMS_P1;PMS_P2;Temp;Humidity;BMP_temperature;BMP_pressure;BME280_temperature;BME280_humidity;BME280_pressure;Samples;Min_cycle;Max_cycle;Signal;HPM_P1;HPM_P2
2021/09/05 00:00:45;;;;;;;11.52;6.22;;;14.00;98.00;;;;;;5073196;28;20075;-71
2021/09/05 00:03:11;;;;;;;11.77;6.25;;;14.10;98.00;;;;;;5073608;28;20323;-71
2021/09/05 00:05:37;;;;;;;10.43;6.75;;;14.00;98.00;;;;;;5072164;28;20037;-71
2021/09/05 00:08:02;;;;;;;10.23;6.03;;;14.00;98.00;;;;;;5074085;28;20035;-70
2021/09/05 00:10:28;;;;;;;10.35;6.53;;;14.00;98.00;;;;;;5070428;28;20135;-72
2021/09/05 00:12:54;;;;;;;10.20;5.93;;;14.00;98.00;;;;;;5073713;28;20440;-72
2021/09/05 00:15:22;;;;;;;14.27;6.68;;;14.00;97.90;;;;;;5073084;28;20368;-72
2021/09/05 00:17:48;;;;;;;11.40;6.20;;;13.90;98.00;;;;;;5066615;28;20063;-72
2021/09/05 00:20:13;;;;;;;10.70;6.35;;;13.90;98.00;;;;;;5067255;28;20064;-72
2021/09/05 00:22:39;;;;;;;11.00;5.60;;;13.80;98.00;;;;;;5056331;28;20075;-72
2021/09/05 00:25:05;;;;;;;11.27;5.63;;;13.80;98.00;;;;;;5064816;28;20020;-71
2021/09/05 00:27:31;;;;;;;14.43;6.05;;;14.00;97.70;;;;;;5073746;28;20421;-71
2021/09/05 00:29:56;;;;;;;10.15;5.43;;;14.10;97.70;;;;;;5072833;28;20035;-72
2021/09/05 00:32:22;;;;;;;9.80;5.90;;;14.10;97.60;;;;;;5060214;28;20415;-71
2021/09/05 00:34:48;;;;;;;10.18;6.28;;;14.00;97.70;;;;;;5056967;28;20104;-71
2021/09/05 00:37:13;;;;;;;9.93;5.90;;;14.00;97.70;;;;;;5060506;28;20330;-71
2021/09/05 00:39:39;;;;;;;14.50;6.93;;;14.00;97.80;;;;;;5052301;28;20386;-71
2021/09/05 00:42:05;;;;;;;11.15;6.57;;;13.90;98.00;;;;;;5070008;28;20036;-71
2021/09/05 00:44:30;;;;;;;11.32;6.15;;;13.90;98.00;;;;;;5071830;28;20379;-71
2021/09/05 00:46:56;;;;;;;11.30;6.47;;;13.80;98.00;;;;;;5068344;28;20028;-71
2021/09/05 00:49:22;;;;;;;11.95;6.18;;;13.80;98.00;;;;;;5072463;28;20330;-71
2021/09/05 00:51:48;;;;;;;8.68;6.00;;;13.70;98.00;;;;;;5073186;28;20032;-71
2021/09/05 00:54:14;;;;;;;10.68;6.60;;;13.40;98.00;;;;;;5072216;28;20036;-71
2021/09/05 00:56:44;;;;;;;14.75;6.45;;;13.20;98.00;;;;;;5072092;28;20118;-71
2021/09/05 00:59:16;;;;;;;11.70;6.47;;;13.00;98.00;;;;;;5068523;28;20037;-71
2021/09/05 01:01:42;;;;;;;11.75;6.80;;;12.90;98.00;;;;;;5069207;28;20511;-71
2021/09/05 01:04:08;;;;;;;11.40;6.55;;;12.70;98.00;;;;;;5072926;28;20054;-71
2021/09/05 01:06:35;;;;;;;10.02;6.43;;;12.80;98.00;;;;;;5072899;28;20076;-70
2021/09/05 01:09:03;;;;;;;12.32;6.53;;;13.00;98.00;;;;;;5061383;28;20047;-70
2021/09/05 01:11:33;;;;;;;10.60;6.70;;;13.20;98.00;;;;;;5072612;28;20028;-71
2021/09/05 01:14:01;;;;;;;9.90;6.13;;;13.30;98.00;;;;;;5072962;28;20020;-70
2021/09/05 01:16:32;;;;;;;13.57;6.70;;;13.40;98.00;;;;;;5069160;28;20029;-71
2021/09/05 01:19:13;;;;;;;10.27;6.35;;;13.50;98.00;;;;;;5073116;28;20150;-71
2021/09/05 01:21:40;;;;;;;11.02;6.20;;;13.60;98.00;;;;;;5072292;28;20035;-71
2021/09/05 01:24:07;;;;;;;12.02;6.80;;;13.60;98.00;;;;;;5071530;28;20032;-71
2021/09/05 01:26:34;;;;;;;13.80;6.25;;;13.50;98.00;;;;;;5071878;28;20024;-71
2021/09/05 01:29:04;;;;;;;10.95;6.60;;;13.60;98.00;;;;;;5069925;28;20448;-71
2021/09/05 01:31:42;;;;;;;11.48;6.97;;;13.50;98.00;;;;;;5060536;28;20302;-71
2021/09/05 01:34:09;;;;;;;10.82;6.70;;;13.50;98.00;;;;;;5053837;28;20493;-71
2021/09/05 01:36:36;;;;;;;11.48;6.78;;;13.40;98.00;;;;;;5064162;28;20435;-71
2021/09/05 01:39:04;;;;;;;9.85;6.55;;;13.40;98.00;;;;;;5071368;28;20024;-71
2021/09/05 01:41:30;;;;;;;12.93;6.80;;;13.30;98.00;;;;;;5059457;28;20094;-71
2021/09/05 01:43:57;;;;;;;12.23;6.70;;;13.10;98.00;;;;;;5057730;28;20351;-71
2021/09/05 01:46:23;;;;;;;10.38;7.05;;;13.00;98.00;;;;;;5067608;28;20054;-71
2021/09/05 01:48:49;;;;;;;13.13;6.82;;;13.10;98.00;;;;;;5072307;28;20152;-71
2021/09/05 01:51:14;;;;;;;10.68;6.28;;;13.20;98.00;;;;;;5071800;28;20063;-71
2021/09/05 01:53:40;;;;;;;9.63;6.30;;;13.20;98.00;;;;;;5061656;28;20029;-71
2021/09/05 01:56:05;;;;;;;11.60;6.90;;;13.30;98.00;;;;;;5072516;28;20028;-70
2021/09/05 01:58:31;;;;;;;12.07;7.35;;;13.40;98.00;;;;;;5068089;28;20110;-71
2021/09/05 02:00:57;;;;;;;11.70;6.90;;;13.50;98.00;;;;;;5071219;28;20531;-71
2021/09/05 02:03:23;;;;;;;12.50;6.53;;;13.60;98.00;;;;;;5072532;28;20035;-71
2021/09/05 02:05:48;;;;;;;14.45;7.13;;;13.60;98.00;;;;;;5072753;28;20441;-72
2021/09/05 02:08:14;;;;;;;10.80;6.53;;;13.60;98.00;;;;;;5070940;28;20424;-70
2021/09/05 02:10:39;;;;;;;12.45;6.97;;;13.60;98.00;;;;;;5074921;28;20032;-71
2021/09/05 02:13:05;;;;;;;10.25;6.07;;;13.60;98.00;;;;;;5074499;28;20313;-71
2021/09/05 02:15:31;;;;;;;12.07;6.45;;;13.60;98.00;;;;;;5072853;28;20024;-71
2021/09/05 02:17:56;;;;;;;14.05;7.53;;;13.50;98.00;;;;;;5063078;28;20029;-71
2021/09/05 02:20:22;;;;;;;12.23;7.20;;;13.30;98.00;;;;;;5071586;28;20429;-71
2021/09/05 02:22:48;;;;;;;13.60;6.90;;;13.00;98.00;;;;;;5074812;28;20028;-71
2021/09/05 02:25:13;;;;;;;9.40;6.18;;;12.80;98.00;;;;;;5072778;28;20044;-71
2021/09/05 02:27:39;;;;;;;13.57;7.38;;;12.80;98.00;;;;;;5074595;28;20056;-71
2021/09/05 02:30:06;;;;;;;13.05;7.00;;;12.60;98.00;;;;;;5074058;28;20120;-71
2021/09/05 02:32:32;;;;;;;11.63;6.40;;;12.50;98.00;;;;;;5073659;28;20028;-71
2021/09/05 02:34:57;;;;;;;13.27;6.45;;;12.40;98.00;;;;;;5075402;28;20043;-71
2021/09/05 02:37:23;;;;;;;13.38;6.80;;;12.30;98.00;;;;;;5074327;28;20364;-71
2021/09/05 02:39:48;;;;;;;9.45;6.38;;;12.20;98.00;;;;;;5073862;28;20029;-71
2021/09/05 02:42:17;;;;;;;11.43;7.10;;;12.20;98.00;;;;;;5076403;28;20031;-71
2021/09/05 02:44:43;;;;;;;11.05;7.20;;;12.20;98.00;;;;;;5077878;28;20035;-71
2021/09/05 02:47:08;;;;;;;12.23;7.35;;;12.10;98.00;;;;;;5076158;28;20024;-71
2021/09/05 02:49:34;;;;;;;12.10;7.28;;;12.20;98.00;;;;;;5078677;28;20020;-71
2021/09/05 02:52:00;;;;;;;11.07;6.32;;;12.40;98.00;;;;;;5078409;28;20031;-71
2021/09/05 02:54:25;;;;;;;11.25;6.80;;;12.50;98.00;;;;;;5077234;28;20409;-71
2021/09/05 02:56:51;;;;;;;11.68;6.75;;;12.60;98.00;;;;;;5075197;28;20024;-71
2021/09/05 02:59:17;;;;;;;11.52;6.88;;;12.60;98.00;;;;;;5078421;28;20067;-70
2021/09/05 03:01:42;;;;;;;12.35;6.50;;;12.60;98.00;;;;;;5075216;28;20103;-70
2021/09/05 03:04:08;;;;;;;10.25;6.75;;;12.50;98.00;;;;;;5064444;28;20033;-73
2021/09/05 03:06:34;;;;;;;11.70;6.35;;;12.40;98.00;;;;;;5072822;28;20044;-72
2021/09/05 03:08:59;;;;;;;11.52;6.30;;;12.50;98.00;;;;;;5076905;28;20016;-71
2021/09/05 03:11:25;;;;;;;11.10;6.88;;;12.50;98.00;;;;;;5077326;28;20078;-72
2021/09/05 03:13:50;;;;;;;9.13;5.90;;;12.50;98.00;;;;;;5057254;28;20029;-72
2021/09/05 03:16:16;;;;;;;11.07;6.63;;;12.50;98.00;;;;;;5063115;28;20021;-71
2021/09/05 03:18:42;;;;;;;11.68;6.82;;;12.50;98.00;;;;;;5058170;28;20318;-71
2021/09/05 03:21:10;;;;;;;14.18;7.22;;;12.40;98.00;;;;;;5067429;28;20099;-71
2021/09/05 03:23:36;;;;;;;11.10;6.93;;;12.40;98.00;;;;;;5076129;28;20024;-71
2021/09/05 03:26:02;;;;;;;11.65;6.53;;;12.20;98.00;;;;;;5077618;28;20108;-71
2021/09/05 03:28:27;;;;;;;12.15;7.00;;;12.10;98.00;;;;;;5068068;28;20021;-71
2021/09/05 03:30:53;;;;;;;11.38;6.57;;;12.00;98.00;;;;;;5075446;28;20408;-71
2021/09/05 03:33:19;;;;;;;13.95;6.88;;;11.90;98.00;;;;;;5077767;28;20051;-71
2021/09/05 03:35:44;;;;;;;11.15;7.10;;;11.90;98.00;;;;;;5076913;28;20299;-71
2021/09/05 03:38:10;;;;;;;10.57;6.78;;;11.90;98.00;;;;;;5075732;28;20029;-71
2021/09/05 03:40:35;;;;;;;11.10;6.55;;;11.80;98.00;;;;;;5057291;28;20025;-71
2021/09/05 03:43:01;;;;;;;10.07;6.75;;;11.80;98.00;;;;;;5061337;28;20074;-71
2021/09/05 03:45:27;;;;;;;11.48;6.90;;;11.80;98.00;;;;;;5074783;28;20016;-71
2021/09/05 03:47:52;;;;;;;13.32;6.35;;;12.00;98.00;;;;;;5061578;28;20025;-71
2021/09/05 03:50:18;;;;;;;10.20;6.30;;;12.20;98.00;;;;;;5072354;28;20023;-71
2021/09/05 03:52:44;;;;;;;11.48;7.20;;;12.30;98.00;;;;;;5065251;28;20294;-71
2021/09/05 03:55:11;;;;;;;11.32;6.95;;;12.40;98.00;;;;;;5075268;28;20085;-71
2021/09/05 03:57:36;;;;;;;11.80;6.60;;;12.50;98.00;;;;;;5076720;28;20081;-71
2021/09/05 04:00:04;;;;;;;11.23;6.97;;;12.70;98.00;;;;;;5076718;28;20352;-71
2021/09/05 04:02:30;;;;;;;14.65;6.47;;;12.80;98.00;;;;;;5058253;28;20075;-71
2021/09/05 04:04:55;;;;;;;10.40;6.25;;;12.80;98.00;;;;;;5069500;28;20313;-71
2021/09/05 04:07:21;;;;;;;14.48;7.60;;;12.80;98.00;;;;;;5076253;28;20044;-71
2021/09/05 04:12:33;;;;;;;13.05;6.15;;;12.90;98.00;;;;;;5077173;28;20089;-71
2021/09/05 04:14:59;;;;;;;10.23;6.20;;;12.90;98.00;;;;;;5075796;28;20036;-71
2021/09/05 04:17:24;;;;;;;11.52;6.82;;;13.00;98.00;;;;;;5057887;28;20060;-71
2021/09/05 04:19:50;;;;;;;10.45;6.10;;;13.00;98.00;;;;;;5071737;28;20032;-71
2021/09/05 04:22:16;;;;;;;8.93;5.45;;;13.00;98.00;;;;;;5076630;28;20024;-71
2021/09/05 04:24:41;;;;;;;10.00;6.07;;;13.10;98.00;;;;;;5075787;28;20047;-71
2021/09/05 04:27:07;;;;;;;10.98;6.40;;;13.00;98.00;;;;;;5068195;28;20049;-71
2021/09/05 04:29:33;;;;;;;12.82;7.00;;;13.00;98.00;;;;;;5075367;28;20488;-71
2021/09/05 04:31:58;;;;;;;10.48;6.38;;;12.90;98.00;;;;;;5064226;28;20414;-71
2021/09/05 04:34:24;;;;;;;10.80;6.35;;;12.90;98.00;;;;;;5064011;28;20029;-71
2021/09/05 04:36:49;;;;;;;9.70;6.18;;;12.80;98.00;;;;;;5056968;28;20429;-71
2021/09/05 04:39:15;;;;;;;9.73;5.68;;;12.80;98.00;;;;;;5070587;28;20035;-71
2021/09/05 04:41:41;;;;;;;10.73;6.50;;;12.70;98.00;;;;;;5076632;28;20349;-71
2021/09/05 04:44:06;;;;;;;10.38;6.13;;;12.70;98.00;;;;;;5075033;28;20076;-71
2021/09/05 04:46:32;;;;;;;11.32;6.32;;;12.70;98.00;;;;;;5067894;28;20025;-71
2021/09/05 04:48:58;;;;;;;11.40;6.65;;;12.70;98.00;;;;;;5076437;28;20024;-71
2021/09/05 04:51:24;;;;;;;9.57;5.90;;;12.60;98.00;;;;;;5074616;28;20317;-71
2021/09/05 04:53:49;;;;;;;10.75;6.55;;;12.60;98.00;;;;;;5055221;28;20103;-71
2021/09/05 04:56:15;;;;;;;10.93;6.80;;;12.60;98.00;;;;;;5065519;28;20099;-71
2021/09/05 04:58:41;;;;;;;9.70;6.32;;;12.60;98.00;;;;;;5061223;28;20350;-71
2021/09/05 05:01:07;;;;;;;9.52;5.97;;;12.50;98.00;;;;;;5061801;28;20136;-71
2021/09/05 05:03:32;;;;;;;10.40;5.82;;;12.40;98.00;;;;;;5056105;28;20231;-71
2021/09/05 05:05:58;;;;;;;13.93;7.05;;;12.30;98.00;;;;;;5062090;28;20044;-71
2021/09/05 05:08:24;;;;;;;12.18;6.40;;;12.30;98.00;;;;;;5074980;28;20028;-71
2021/09/05 05:10:49;;;;;;;10.23;6.28;;;12.20;98.00;;;;;;5075805;28;20462;-71
2021/09/05 05:13:15;;;;;;;9.75;6.47;;;12.20;98.00;;;;;;5074313;28;20425;-71
2021/09/05 05:15:40;;;;;;;12.60;6.40;;;12.20;98.00;;;;;;5073947;28;20436;-71
2021/09/05 05:18:06;;;;;;;10.38;6.43;;;12.20;98.00;;;;;;5076023;28;20067;-71
2021/09/05 05:20:35;;;;;;;11.02;6.93;;;12.20;98.00;;;;;;5075667;28;20024;-71
2021/09/05 05:23:00;;;;;;;10.75;6.53;;;12.20;98.00;;;;;;5075960;28;20102;-71
2021/09/05 05:25:26;;;;;;;9.57;6.25;;;12.20;98.00;;;;;;5074590;28;20024;-71
2021/09/05 05:27:52;;;;;;;9.45;5.95;;;12.20;98.00;;;;;;5074023;28;20028;-71
2021/09/05 05:30:17;;;;;;;11.35;6.80;;;12.20;98.00;;;;;;5065511;28;20033;-71
2021/09/05 05:32:43;;;;;;;10.88;6.82;;;12.20;98.00;;;;;;5072483;28;20043;-71
2021/09/05 05:35:09;;;;;;;12.63;7.55;;;12.20;98.00;;;;;;5075557;28;20154;-71
2021/09/05 05:37:35;;;;;;;12.25;7.40;;;12.20;98.00;;;;;;5076061;28;20144;-71
2021/09/05 05:40:00;;;;;;;11.70;7.18;;;12.10;98.00;;;;;;5074401;28;20036;-71
2021/09/05 05:42:26;;;;;;;13.02;6.82;;;12.10;98.00;;;;;;5075293;28;20077;-71
2021/09/05 05:44:52;;;;;;;10.88;7.00;;;12.20;98.00;;;;;;5075591;28;20024;-71
2021/09/05 05:47:18;;;;;;;10.75;7.40;;;12.20;98.00;;;;;;5071246;28;20029;-71
2021/09/05 05:49:46;;;;;;;12.95;8.07;;;12.20;98.00;;;;;;5075049;28;20052;-71
2021/09/05 05:52:13;;;;;;;11.65;6.93;;;12.20;98.00;;;;;;5074915;28;20024;-70
2021/09/05 05:54:39;;;;;;;11.75;7.28;;;12.30;98.00;;;;;;5073203;28;20033;-71
2021/09/05 05:57:05;;;;;;;12.27;6.75;;;12.40;98.00;;;;;;5067606;28;20346;-70
2021/09/05 05:59:34;;;;;;;11.25;6.78;;;12.50;98.00;;;;;;5055419;28;20105;-72
2021/09/05 06:01:59;;;;;;;11.65;6.03;;;12.60;98.00;;;;;;5070688;28;20028;-72
2021/09/05 06:04:25;;;;;;;10.10;6.45;;;12.80;98.00;;;;;;5073402;28;20299;-71
2021/09/05 06:06:53;;;;;;;9.55;6.05;;;12.90;98.00;;;;;;5060737;28;20053;-71
2021/09/05 06:09:19;;;;;;;9.20;5.57;;;13.10;98.00;;;;;;5067926;28;20023;-72
2021/09/05 06:11:45;;;;;;;8.98;5.97;;;13.40;98.00;;;;;;5063995;28;20021;-71
2021/09/05 06:14:11;;;;;;;10.43;5.57;;;14.20;98.00;;;;;;5075175;28;20029;-71
2021/09/05 06:16:42;;;;;;;12.07;5.85;;;15.00;98.00;;;;;;5075611;28;20025;-71
2021/09/05 06:19:07;;;;;;;9.98;6.25;;;15.70;96.40;;;;;;5078906;28;20025;-71
2021/09/05 06:21:33;;;;;;;10.95;6.35;;;16.30;93.30;;;;;;5078301;28;20025;-71
2021/09/05 06:23:59;;;;;;;12.60;6.32;;;16.40;92.30;;;;;;5077528;28;20406;-71
2021/09/05 06:26:25;;;;;;;9.93;5.68;;;16.60;91.80;;;;;;5073118;28;20029;-72
2021/09/05 06:28:50;;;;;;;10.43;6.35;;;16.80;91.00;;;;;;5064013;28;20036;-71
2021/09/05 06:31:16;;;;;;;11.43;5.85;;;16.40;91.50;;;;;;5058919;28;20054;-71
2021/09/05 06:33:42;;;;;;;11.40;6.50;;;15.90;92.50;;;;;;5072072;28;20102;-71
2021/09/05 06:36:08;;;;;;;10.05;5.93;;;15.70;93.70;;;;;;5078826;28;20021;-71
2021/09/05 06:38:33;;;;;;;9.70;5.60;;;15.50;94.30;;;;;;5077463;28;20422;-71
2021/09/05 06:40:59;;;;;;;11.55;6.43;;;15.50;94.60;;;;;;5078407;28;20044;-71
2021/09/05 06:43:27;;;;;;;11.00;6.40;;;15.50;94.80;;;;;;5078772;28;20023;-71
2021/09/05 06:45:53;;;;;;;12.30;5.60;;;15.50;95.60;;;;;;5078317;28;20032;-71
2021/09/05 06:48:18;;;;;;;11.90;6.18;;;15.50;95.90;;;;;;5078561;28;20052;-71
2021/09/05 06:50:46;;;;;;;12.02;6.53;;;15.50;96.10;;;;;;5073715;28;20021;-71
2021/09/05 06:53:12;;;;;;;12.70;7.22;;;15.50;96.80;;;;;;5061406;28;20376;-71
2021/09/05 06:55:38;;;;;;;10.25;6.68;;;15.40;97.10;;;;;;5064659;28;20029;-71
2021/09/05 06:58:04;;;;;;;11.20;6.47;;;15.40;97.10;;;;;;5065709;28;20074;-71
2021/09/05 07:00:29;;;;;;;9.80;5.85;;;15.50;96.70;;;;;;5073773;28;20032;-71
2021/09/05 07:02:56;;;;;;;11.02;6.35;;;15.70;96.90;;;;;;5068062;28;20052;-71
2021/09/05 07:05:21;;;;;;;9.50;5.97;;;15.90;96.20;;;;;;5071557;28;20468;-71
2021/09/05 07:07:47;;;;;;;10.13;6.43;;;16.10;96.00;;;;;;5078112;28;20052;-71
2021/09/05 07:10:13;;;;;;;10.55;6.57;;;16.20;95.70;;;;;;5076450;28;20033;-71
2021/09/05 07:12:38;;;;;;;9.98;6.13;;;16.20;96.00;;;;;;5077817;28;20029;-71
2021/09/05 07:15:04;;;;;;;10.40;6.35;;;16.30;96.20;;;;;;5077269;28;20029;-71
2021/09/05 07:17:30;;;;;;;10.15;5.80;;;16.50;96.20;;;;;;5077554;28;20322;-71
2021/09/05 07:19:56;;;;;;;9.75;5.75;;;16.70;95.80;;;;;;5077485;28;20021;-71
2021/09/05 07:22:21;;;;;;;12.52;6.80;;;16.90;95.80;;;;;;5077819;28;20419;-71
2021/09/05 07:24:47;;;;;;;11.07;6.63;;;17.20;95.40;;;;;;5060565;28;20029;-71
2021/09/05 07:27:13;;;;;;;10.57;6.10;;;17.60;95.10;;;;;;5057620;28;20067;-72
2021/09/05 07:29:38;;;;;;;10.07;5.57;;;17.90;94.20;;;;;;5077700;28;20086;-71
2021/09/05 07:32:05;;;;;;;9.60;5.65;;;18.10;93.20;;;;;;5077910;28;20024;-71
2021/09/05 07:34:30;;;;;;;10.52;5.72;;;18.20;92.40;;;;;;5070757;28;20313;-72
2021/09/05 07:36:56;;;;;;;10.05;5.78;;;18.40;92.70;;;;;;5065225;28;20051;-71
2021/09/05 07:39:21;;;;;;;9.43;5.97;;;18.50;91.00;;;;;;5068716;28;20035;-71
2021/09/05 07:41:47;;;;;;;9.35;5.70;;;18.50;91.50;;;;;;5074089;28;20017;-72
2021/09/05 07:44:13;;;;;;;10.73;6.10;;;18.60;92.10;;;;;;5077594;28;20432;-71
2021/09/05 07:46:38;;;;;;;10.25;6.32;;;18.70;91.50;;;;;;5077543;28;20028;-71
2021/09/05 07:49:04;;;;;;;9.55;5.93;;;18.90;90.60;;;;;;5076488;28;20052;-71
2021/09/05 07:51:30;;;;;;;12.63;6.03;;;19.10;90.70;;;;;;5077024;28;20021;-71
2021/09/05 07:53:55;;;;;;;11.95;6.80;;;19.30;89.80;;;;;;5075953;28;20410;-71
2021/09/05 07:56:21;;;;;;;12.73;6.20;;;19.40;89.20;;;;;;5077524;28;20025;-72
2021/09/05 07:58:47;;;;;;;9.30;5.72;;;19.40;89.60;;;;;;5075416;28;20099;-71
2021/09/05 08:01:15;;;;;;;9.52;5.82;;;19.60;89.80;;;;;;5076209;28;20032;-71
2021/09/05 08:03:40;;;;;;;9.18;5.72;;;20.10;89.00;;;;;;5068339;28;20051;-71
2021/09/05 08:06:07;;;;;;;7.93;5.10;;;20.80;87.30;;;;;;5057968;28;20111;-71
2021/09/05 08:08:35;;;;;;;10.65;5.22;;;21.80;85.50;;;;;;5068989;28;20262;-71
2021/09/05 08:11:01;;;;;;;8.77;5.07;;;23.00;80.40;;;;;;5066256;28;20052;-71
2021/09/05 08:13:27;;;;;;;8.07;5.20;;;24.10;77.30;;;;;;5073228;28;20452;-71
2021/09/05 08:15:52;;;;;;;8.98;5.15;;;23.80;75.50;;;;;;5065877;28;20032;-71
2021/09/05 08:18:18;;;;;;;7.63;4.75;;;23.70;76.90;;;;;;5060779;28;20095;-71
2021/09/05 08:20:44;;;;;;;10.40;5.28;;;24.00;76.90;;;;;;5076476;28;20372;-71
2021/09/05 08:23:09;;;;;;;7.50;4.82;;;24.50;75.40;;;;;;5075798;28;20360;-71
2021/09/05 08:25:35;;;;;;;10.20;4.88;;;24.70;74.00;;;;;;5075794;28;20034;-71
2021/09/05 08:28:00;;;;;;;9.00;5.45;;;24.90;74.40;;;;;;5071481;28;20429;-71
2021/09/05 08:30:26;;;;;;;8.52;4.85;;;25.20;73.80;;;;;;5066980;28;20441;-70
2021/09/05 08:32:52;;;;;;;9.50;5.28;;;25.30;73.80;;;;;;5056816;28;20024;-70
2021/09/05 08:35:18;;;;;;;8.50;4.30;;;25.70;73.80;;;;;;5065745;28;20021;-71
2021/09/05 08:37:43;;;;;;;7.88;4.90;;;26.10;72.40;;;;;;5076571;28;20027;-71
2021/09/05 08:40:09;;;;;;;6.47;4.05;;;26.20;71.80;;;;;;5074426;28;20155;-71
2021/09/05 08:42:35;;;;;;;7.75;4.55;;;26.30;72.70;;;;;;5075627;28;20016;-71
2021/09/05 08:45:03;;;;;;;8.93;4.80;;;27.40;68.90;;;;;;5065458;28;20029;-70
2021/09/05 08:47:33;;;;;;;7.32;4.38;;;27.70;68.60;;;;;;5072037;28;20107;-70
2021/09/05 08:50:01;;;;;;;6.95;4.18;;;27.50;69.10;;;;;;5059136;28;20028;-69
2021/09/05 08:52:26;;;;;;;7.13;4.55;;;28.30;67.90;;;;;;5074949;28;20107;-72
2021/09/05 08:54:52;;;;;;;8.60;4.78;;;29.00;66.60;;;;;;5061092;28;20537;-72
2021/09/05 08:57:18;;;;;;;7.18;4.32;;;29.30;63.60;;;;;;5071634;28;20059;-71
2021/09/05 08:59:46;;;;;;;7.55;4.53;;;29.80;61.30;;;;;;5071272;28;20086;-71
2021/09/05 09:02:12;;;;;;;7.25;4.75;;;28.90;64.70;;;;;;5071582;28;20317;-71
2021/09/05 09:04:40;;;;;;;7.22;4.90;;;27.70;68.60;;;;;;5074047;28;20028;-71
2021/09/05 09:07:14;;;;;;;8.73;4.47;;;27.30;69.30;;;;;;5060691;28;20045;-71
2021/09/05 09:09:51;;;;;;;8.35;5.22;;;27.70;68.80;;;;;;5074594;28;20040;-71
2021/09/05 09:12:37;;;;;;;6.55;4.10;;;27.40;68.20;;;;;;5068573;28;20025;-71
2021/09/05 09:15:16;;;;;;;7.30;5.00;;;28.00;67.80;;;;;;5057783;28;20082;-70
2021/09/05 09:17:41;;;;;;;8.32;4.82;;;28.60;66.30;;;;;;5070844;28;20025;-70
2021/09/05 09:20:07;;;;;;;7.15;4.50;;;28.30;67.10;;;;;;5074268;28;20024;-71
2021/09/05 09:22:33;;;;;;;6.65;3.90;;;28.50;66.60;;;;;;5058945;28;20029;-71
2021/09/05 09:25:00;;;;;;;7.70;4.45;;;29.00;61.20;;;;;;5054505;28;20083;-70
2021/09/05 09:27:26;;;;;;;8.50;4.57;;;28.20;65.00;;;;;;5057442;28;20127;-70
2021/09/05 09:29:55;;;;;;;6.82;4.40;;;28.20;61.50;;;;;;5066433;28;20033;-71
2021/09/05 09:32:23;;;;;;;7.20;3.97;;;28.80;59.60;;;;;;5070327;28;20028;-71
2021/09/05 09:34:50;;;;;;;5.88;3.53;;;29.10;57.90;;;;;;5057203;28;20021;-71
2021/09/05 09:37:22;;;;;;;6.90;3.88;;;30.40;57.70;;;;;;5070489;28;20162;-71
2021/09/05 09:39:56;;;;;;;6.57;3.95;;;30.80;54.70;;;;;;5070890;28;20317;-71
2021/09/05 09:42:38;;;;;;;6.75;3.50;;;31.50;53.80;;;;;;5067460;28;20020;-71
2021/09/05 09:45:11;;;;;;;9.50;4.38;;;31.40;53.00;;;;;;5056166;28;20421;-71
2021/09/05 09:47:41;;;;;;;6.07;3.70;;;31.90;54.20;;;;;;5057294;28;20345;-71
2021/09/05 09:50:07;;;;;;;6.50;3.78;;;32.30;54.60;;;;;;5063005;28;20035;-71
2021/09/05 09:52:33;;;;;;;7.13;3.67;;;32.80;52.00;;;;;;5068261;28;20036;-71
2021/09/05 09:54:59;;;;;;;5.90;3.53;;;32.90;52.60;;;;;;5075653;28;20345;-71
2021/09/05 09:57:25;;;;;;;8.27;4.10;;;32.80;50.60;;;;;;5075932;28;20036;-71
2021/09/05 09:59:50;;;;;;;11.70;6.25;;;32.60;51.30;;;;;;5078325;28;20041;-71
2021/09/05 10:02:18;;;;;;;7.18;4.93;;;31.40;59.70;;;;;;5062106;28;20025;-71
2021/09/05 10:04:48;;;;;;;7.35;4.60;;;30.10;63.20;;;;;;5068543;28;20049;-71
2021/09/05 10:07:20;;;;;;;10.85;4.95;;;29.80;65.50;;;;;;5079409;28;20049;-71
2021/09/05 10:09:47;;;;;;;9.65;4.70;;;30.20;62.10;;;;;;5078427;28;20028;-71
2021/09/05 10:12:14;;;;;;;8.25;4.93;;;30.20;62.60;;;;;;5079320;28;20030;-71
2021/09/05 10:14:42;;;;;;;7.85;4.80;;;30.80;60.40;;;;;;5079431;28;20033;-71
2021/09/05 10:17:08;;;;;;;7.47;5.00;;;30.40;59.70;;;;;;5071352;28;20102;-71
2021/09/05 10:19:40;;;;;;;8.43;5.18;;;30.40;63.40;;;;;;5059334;28;20032;-70
2021/09/05 10:22:06;;;;;;;10.70;5.30;;;29.80;64.20;;;;;;5058185;28;20021;-71
2021/09/05 10:24:43;;;;;;;8.82;5.25;;;29.40;65.20;;;;;;5058069;28;20064;-71
2021/09/05 10:27:09;;;;;;;7.82;4.90;;;29.70;65.20;;;;;;5063587;28;20099;-71
2021/09/05 10:29:35;;;;;;;8.35;5.45;;;29.90;62.60;;;;;;5078926;28;20112;-71
2021/09/05 10:32:02;;;;;;;9.38;5.38;;;29.70;62.30;;;;;;5079024;28;20481;-70
2021/09/05 10:34:34;;;;;;;7.47;4.82;;;29.30;63.80;;;;;;5079250;28;20073;-71
2021/09/05 10:37:26;;;;;;;8.93;5.35;;;29.20;63.90;;;;;;5078960;28;20020;-71
2021/09/05 10:40:08;;;;;;;8.25;4.90;;;28.90;64.90;;;;;;5073703;28;20123;-72
2021/09/05 10:42:54;;;;;;;7.57;4.70;;;29.10;64.30;;;;;;5078829;28;20032;-71
2021/09/05 10:45:22;;;;;;;8.20;4.00;;;29.90;58.00;;;;;;5078902;28;20020;-71
2021/09/05 10:47:47;;;;;;;8.07;4.82;;;30.50;56.80;;;;;;5062816;28;20025;-71
2021/09/05 10:50:36;;;;;;;7.43;4.35;;;30.60;57.20;;;;;;5058647;28;20032;-71
2021/09/05 10:53:18;;;;;;;7.25;4.15;;;30.90;58.50;;;;;;5058790;28;20025;-71
2021/09/05 10:56:04;;;;;;;6.63;3.80;;;31.30;56.20;;;;;;5058795;28;20433;-71
2021/09/05 10:58:38;;;;;;;7.93;4.18;;;31.40;55.60;;;;;;5073285;28;20070;-71
2021/09/05 11:01:21;;;;;;;7.68;4.75;;;31.10;56.60;;;;;;5076778;28;20032;-71
2021/09/05 11:04:11;;;;;;;7.72;4.13;;;31.50;54.90;;;;;;5076798;28;20050;-71
2021/09/05 11:06:41;;;;;;;8.40;4.00;;;32.10;55.40;;;;;;5078243;28;20060;-71
2021/09/05 11:12:03;;;;;;;7.18;4.38;;;32.10;53.80;;;;;;5078308;28;20024;-71
2021/09/05 11:14:35;;;;;;;6.88;3.90;;;31.60;53.60;;;;;;5078368;28;20017;-71
2021/09/05 11:17:07;;;;;;;7.40;4.18;;;31.70;55.60;;;;;;5069023;28;20112;-71
2021/09/05 11:19:34;;;;;;;8.32;4.38;;;31.40;56.80;;;;;;5057992;28;20071;-71
2021/09/05 11:22:06;;;;;;;6.90;3.78;;;31.10;54.50;;;;;;5056977;28;20520;-70
2021/09/05 11:24:33;;;;;;;6.85;4.03;;;31.10;55.40;;;;;;5057020;28;20025;-71
2021/09/05 11:27:05;;;;;;;6.90;3.95;;;31.60;53.70;;;;;;5058340;28;20059;-71
2021/09/05 11:29:32;;;;;;;7.05;4.22;;;31.00;56.90;;;;;;5058000;28;20035;-71
2021/09/05 11:32:05;;;;;;;6.57;4.10;;;31.00;54.30;;;;;;5058083;28;20149;-71
2021/09/05 11:34:31;;;;;;;8.85;4.10;;;30.70;56.40;;;;;;5057880;28;20109;-71
2021/09/05 11:36:56;;;;;;;6.30;3.90;;;30.70;54.50;;;;;;5058805;28;20115;-71
2021/09/05 11:39:25;;;;;;;5.88;3.72;;;31.30;53.80;;;;;;5056518;28;20032;-71
2021/09/05 11:41:56;;;;;;;6.80;3.85;;;31.60;56.60;;;;;;5057912;28;20040;-71
2021/09/05 11:44:37;;;;;;;7.28;4.35;;;31.90;56.40;;;;;;5056756;28;20115;-70
2021/09/05 11:47:19;;;;;;;6.53;4.13;;;32.20;52.30;;;;;;5057872;28;20025;-70
2021/09/05 11:49:49;;;;;;;6.78;4.03;;;31.60;53.50;;;;;;5057315;28;20037;-70
2021/09/05 11:52:23;;;;;;;7.25;4.15;;;31.30;54.90;;;;;;5057234;28;20029;-71
2021/09/05 11:54:49;;;;;;;;;;;30.80;56.10;;;;;;5056766;28;20025;-71
2021/09/05 11:57:15;;;;;;;7.40;3.83;;;31.00;55.60;;;;;;5056381;28;19905;-71
2021/09/05 11:59:41;;;;;;;7.35;3.63;;;31.40;54.50;;;;;;5057460;28;20036;-71
2021/09/05 12:02:07;;;;;;;6.68;4.38;;;31.70;55.30;;;;;;5075400;28;20028;-71
2021/09/05 12:04:35;;;;;;;6.75;4.15;;;30.80;55.00;;;;;;5077459;28;20021;-71
2021/09/05 12:07:02;;;;;;;6.78;3.88;;;30.70;57.80;;;;;;5076494;28;20051;-71
2021/09/05 12:09:29;;;;;;;6.18;4.00;;;31.50;54.90;;;;;;5075891;28;20158;-71
2021/09/05 12:11:59;;;;;;;7.35;4.05;;;31.50;55.10;;;;;;5077319;28;20028;-71
2021/09/05 12:14:36;;;;;;;6.93;3.65;;;31.10;55.20;;;;;;5076147;28;20339;-71
2021/09/05 12:17:21;;;;;;;5.57;3.58;;;31.00;58.20;;;;;;5066406;28;20048;-71
2021/09/05 12:19:58;;;;;;;7.18;4.35;;;31.40;54.80;;;;;;5063869;28;20037;-71
2021/09/05 12:22:24;;;;;;;6.00;3.42;;;31.40;55.40;;;;;;5075165;28;20024;-71
2021/09/05 12:24:57;;;;;;;7.18;3.92;;;31.10;55.50;;;;;;5075565;28;20021;-71
2021/09/05 12:27:23;;;;;;;6.93;4.25;;;30.50;58.30;;;;;;5077057;28;20097;-71
2021/09/05 12:29:49;;;;;;;7.10;4.05;;;30.00;58.00;;;;;;5065033;28;20123;-71
2021/09/05 12:32:16;;;;;;;7.35;3.88;;;30.10;57.60;;;;;;5057617;28;20032;-71
2021/09/05 12:34:47;;;;;;;8.13;4.10;;;30.40;57.40;;;;;;5056115;28;20324;-71
2021/09/05 12:37:21;;;;;;;7.13;4.13;;;29.80;57.90;;;;;;5073395;28;20831;-71
2021/09/05 12:39:51;;;;;;;10.18;4.38;;;29.90;57.80;;;;;;5072083;28;20033;-71
2021/09/05 12:42:18;;;;;;;6.28;3.67;;;30.00;59.00;;;;;;5073363;28;20104;-71
2021/09/05 12:44:49;;;;;;;7.03;4.03;;;29.90;58.00;;;;;;5073061;28;20099;-71
2021/09/05 12:47:25;;;;;;;9.73;4.22;;;29.70;59.70;;;;;;5071467;28;20043;-71